sensor_id;sensor_type;location;lat;lon;timestamp;temperature;humidity
55016;DHT22;40919;43.236;21.590;2023-07-31T00:01:47;588.80;2432.00
55016;DHT22;40919;43.236;21.590;2023-07-31T00:04:13;588.90;2432.00
55016;DHT22;40919;43.236;21.590;2023-07-31T00:06:38;589.10;2432.00
55016;DHT22;40919;43.236;21.590;2023-07-31T00:09:04;589.20;2432.00
55016;DHT22;40919;43.236;21.590;2023-07-31T00:11:30;589.20;2432.00
55016;DHT22;40919;43.236;21.590;2023-07-31T00:13:57;589.30;2432.00
55016;DHT22;40919;43.236;21.590;2023-07-31T00:16:23;589.40;2432.00
55016;DHT22;40919;43.236;21.590;2023-07-31T00:18:49;589.40;2432.00
55016;DHT22;40919;43.236;21.590;2023-07-31T00:21:15;589.20;2432.00
55016;DHT22;40919;43.236;21.590;2023-07-31T00:23:40;589.30;2432.00
55016;DHT22;40919;43.236;21.590;2023-07-31T00:26:06;589.30;2432.00
55016;DHT22;40919;43.236;21.590;2023-07-31T00:28:32;589.40;2432.00
55016;DHT22;40919;43.236;21.590;2023-07-31T00:30:58;589.40;2432.00
55016;DHT22;40919;43.236;21.590;2023-07-31T00:33:23;589.30;2432.00
55016;DHT22;40919;43.236;21.590;2023-07-31T00:35:49;589.40;2432.00
55016;DHT22;40919;43.236;21.590;2023-07-31T00:38:15;589.40;2432.00
55016;DHT22;40919;43.236;21.590;2023-07-31T00:40:41;589.20;2432.00
55016;DHT22;40919;43.236;21.590;2023-07-31T00:43:06;589.20;2432.00
55016;DHT22;40919;43.236;21.590;2023-07-31T00:45:33;589.10;2432.00
55016;DHT22;40919;43.236;21.590;2023-07-31T00:48:14;589.00;2432.00
55016;DHT22;40919;43.236;21.590;2023-07-31T00:51:05;588.90;2432.00
55016;DHT22;40919;43.236;21.590;2023-07-31T00:53:31;588.90;2432.00
55016;DHT22;40919;43.236;21.590;2023-07-31T00:55:57;588.90;2432.00
55016;DHT22;40919;43.236;21.590;2023-07-31T00:58:23;588.90;2432.00
55016;DHT22;40919;43.236;21.590;2023-07-31T01:00:49;589.00;2432.00
55016;DHT22;40919;43.236;21.590;2023-07-31T01:03:16;589.00;2432.00
55016;DHT22;40919;43.236;21.590;2023-07-31T01:11:06;589.00;2432.00
55016;DHT22;40919;43.236;21.590;2023-07-31T01:13:33;589.00;2432.00
55016;DHT22;40919;43.236;21.590;2023-07-31T01:15:59;589.00;2432.00
55016;DHT22;40919;43.236;21.590;2023-07-31T01:18:25;589.10;2432.00
55016;DHT22;40919;43.236;21.590;2023-07-31T01:21:03;589.10;2432.00
55016;DHT22;40919;43.236;21.590;2023-07-31T01:23:46;589.20;2432.00
55016;DHT22;40919;43.236;21.590;2023-07-31T01:26:34;589.10;2432.00
55016;DHT22;40919;43.236;21.590;2023-07-31T01:31:29;589.00;2432.00
55016;DHT22;40919;43.236;21.590;2023-07-31T01:34:00;588.90;2432.00
55016;DHT22;40919;43.236;21.590;2023-07-31T01:36:26;588.80;2432.00
55016;DHT22;40919;43.236;21.590;2023-07-31T01:38:53;588.90;2432.00
55016;DHT22;40919;43.236;21.590;2023-07-31T01:41:23;588.90;2432.00
55016;DHT22;40919;43.236;21.590;2023-07-31T01:43:48;588.90;2432.00
55016;DHT22;40919;43.236;21.590;2023-07-31T01:46:14;588.80;2432.00
55016;DHT22;40919;43.236;21.590;2023-07-31T01:48:40;588.80;2432.00
55016;DHT22;40919;43.236;21.590;2023-07-31T01:51:06;588.90;2432.00
55016;DHT22;40919;43.236;21.590;2023-07-31T01:53:32;588.80;2432.00
55016;DHT22;40919;43.236;21.590;2023-07-31T01:55:57;588.80;2432.00
55016;DHT22;40919;43.236;21.590;2023-07-31T01:58:23;588.80;2432.00
55016;DHT22;40919;43.236;21.590;2023-07-31T02:00:49;588.90;2432.00
55016;DHT22;40919;43.236;21.590;2023-07-31T02:03:15;588.80;2432.00
55016;DHT22;40919;43.236;21.590;2023-07-31T02:05:45;588.90;2432.00
55016;DHT22;40919;43.236;21.590;2023-07-31T02:08:11;588.80;2432.00
55016;DHT22;40919;43.236;21.590;2023-07-31T02:10:37;588.80;2432.00
55016;DHT22;40919;43.236;21.590;2023-07-31T02:13:02;588.80;2432.00
55016;DHT22;40919;43.236;21.590;2023-07-31T02:15:30;588.80;2432.00
55016;DHT22;40919;43.236;21.590;2023-07-31T02:17:56;588.80;2432.00
55016;DHT22;40919;43.236;21.590;2023-07-31T02:20:21;588.80;2432.00
55016;DHT22;40919;43.236;21.590;2023-07-31T02:22:47;588.80;2432.00
55016;DHT22;40919;43.236;21.590;2023-07-31T02:25:13;564.10;2432.00
55016;DHT22;40919;43.236;21.590;2023-07-31T02:27:39;588.80;2432.00
55016;DHT22;40919;43.236;21.590;2023-07-31T02:30:05;588.80;2432.00
55016;DHT22;40919;43.236;21.590;2023-07-31T02:32:31;588.90;2432.00
55016;DHT22;40919;43.236;21.590;2023-07-31T02:34:57;588.90;2432.00
55016;DHT22;40919;43.236;21.590;2023-07-31T02:37:23;588.80;2432.00
55016;DHT22;40919;43.236;21.590;2023-07-31T02:39:49;588.80;2432.00
55016;DHT22;40919;43.236;21.590;2023-07-31T02:42:15;564.10;2432.00
55016;DHT22;40919;43.236;21.590;2023-07-31T02:44:40;564.10;2432.00
55016;DHT22;40919;43.236;21.590;2023-07-31T02:47:06;588.80;2432.00
55016;DHT22;40919;43.236;21.590;2023-07-31T02:49:32;588.80;2432.00
55016;DHT22;40919;43.236;21.590;2023-07-31T02:51:58;588.80;2432.00
55016;DHT22;40919;43.236;21.590;2023-07-31T02:54:24;588.80;2432.00
55016;DHT22;40919;43.236;21.590;2023-07-31T02:56:49;588.90;2432.00
55016;DHT22;40919;43.236;21.590;2023-07-31T02:59:15;588.80;2432.00
55016;DHT22;40919;43.236;21.590;2023-07-31T03:01:41;588.80;2432.00
55016;DHT22;40919;43.236;21.590;2023-07-31T03:04:07;588.90;2432.00
55016;DHT22;40919;43.236;21.590;2023-07-31T03:06:33;588.80;2432.00
55016;DHT22;40919;43.236;21.590;2023-07-31T03:08:58;564.10;2432.00
55016;DHT22;40919;43.236;21.590;2023-07-31T03:11:24;588.80;2432.00
55016;DHT22;40919;43.236;21.590;2023-07-31T03:13:50;564.10;2432.00
55016;DHT22;40919;43.236;21.590;2023-07-31T03:16:16;564.10;2432.00
55016;DHT22;40919;43.236;21.590;2023-07-31T03:18:43;564.10;2432.00
55016;DHT22;40919;43.236;21.590;2023-07-31T03:21:08;564.10;2432.00
55016;DHT22;40919;43.236;21.590;2023-07-31T03:23:34;564.10;2432.00
55016;DHT22;40919;43.236;21.590;2023-07-31T03:26:01;564.10;2432.00
55016;DHT22;40919;43.236;21.590;2023-07-31T03:28:29;564.10;2432.00
55016;DHT22;40919;43.236;21.590;2023-07-31T03:30:55;564.10;2432.00
55016;DHT22;40919;43.236;21.590;2023-07-31T03:33:21;564.00;2432.00
55016;DHT22;40919;43.236;21.590;2023-07-31T03:35:47;564.10;2432.00
55016;DHT22;40919;43.236;21.590;2023-07-31T03:38:13;564.00;2432.00
55016;DHT22;40919;43.236;21.590;2023-07-31T03:40:39;564.10;2432.00
55016;DHT22;40919;43.236;21.590;2023-07-31T03:43:05;564.10;2432.00
55016;DHT22;40919;43.236;21.590;2023-07-31T03:45:31;564.10;2432.00
55016;DHT22;40919;43.236;21.590;2023-07-31T03:47:57;564.10;2432.00
55016;DHT22;40919;43.236;21.590;2023-07-31T03:50:23;588.80;2432.00
55016;DHT22;40919;43.236;21.590;2023-07-31T03:52:50;588.80;2432.00
55016;DHT22;40919;43.236;21.590;2023-07-31T03:55:16;564.10;2432.00
55016;DHT22;40919;43.236;21.590;2023-07-31T03:57:42;564.10;2432.00
55016;DHT22;40919;43.236;21.590;2023-07-31T04:00:08;564.10;2432.00
55016;DHT22;40919;43.236;21.590;2023-07-31T04:02:34;589.00;2432.00
55016;DHT22;40919;43.236;21.590;2023-07-31T04:04:59;564.10;2432.00
55016;DHT22;40919;43.236;21.590;2023-07-31T04:07:25;564.10;2432.00
55016;DHT22;40919;43.236;21.590;2023-07-31T04:09:51;564.10;2432.00
55016;DHT22;40919;43.236;21.590;2023-07-31T04:12:17;564.10;2432.00
55016;DHT22;40919;43.236;21.590;2023-07-31T04:14:42;564.10;2432.00
55016;DHT22;40919;43.236;21.590;2023-07-31T04:17:08;564.10;2432.00
55016;DHT22;40919;43.236;21.590;2023-07-31T04:19:34;588.80;2432.00
55016;DHT22;40919;43.236;21.590;2023-07-31T04:22:00;588.80;2432.00
55016;DHT22;40919;43.236;21.590;2023-07-31T04:24:25;564.10;2432.00
55016;DHT22;40919;43.236;21.590;2023-07-31T04:26:52;564.10;2432.00
55016;DHT22;40919;43.236;21.590;2023-07-31T04:29:18;564.10;2432.00
55016;DHT22;40919;43.236;21.590;2023-07-31T04:31:44;563.90;2432.00
55016;DHT22;40919;43.236;21.590;2023-07-31T04:34:10;564.10;2432.00
55016;DHT22;40919;43.236;21.590;2023-07-31T04:36:37;588.80;2432.00
55016;DHT22;40919;43.236;21.590;2023-07-31T04:39:03;588.80;2432.00
55016;DHT22;40919;43.236;21.590;2023-07-31T04:41:28;588.80;2432.00
55016;DHT22;40919;43.236;21.590;2023-07-31T04:43:54;588.80;2432.00
55016;DHT22;40919;43.236;21.590;2023-07-31T04:46:20;588.80;2432.00
55016;DHT22;40919;43.236;21.590;2023-07-31T04:48:46;588.80;2432.00
55016;DHT22;40919;43.236;21.590;2023-07-31T04:51:11;564.10;2432.00
55016;DHT22;40919;43.236;21.590;2023-07-31T04:53:37;564.10;2432.00
55016;DHT22;40919;43.236;21.590;2023-07-31T04:56:03;564.10;2432.00
55016;DHT22;40919;43.236;21.590;2023-07-31T04:58:29;588.80;2432.00
55016;DHT22;40919;43.236;21.590;2023-07-31T05:00:55;588.90;2432.00
55016;DHT22;40919;43.236;21.590;2023-07-31T05:03:21;588.90;2432.00
55016;DHT22;40919;43.236;21.590;2023-07-31T05:05:47;589.00;2432.00
55016;DHT22;40919;43.236;21.590;2023-07-31T05:08:13;589.00;2432.00
55016;DHT22;40919;43.236;21.590;2023-07-31T05:10:38;589.10;2432.00
55016;DHT22;40919;43.236;21.590;2023-07-31T05:13:04;589.00;2432.00
55016;DHT22;40919;43.236;21.590;2023-07-31T05:15:31;589.00;2432.00
55016;DHT22;40919;43.236;21.590;2023-07-31T05:17:57;589.20;2432.00
55016;DHT22;40919;43.236;21.590;2023-07-31T05:20:22;589.20;2432.00
55016;DHT22;40919;43.236;21.590;2023-07-31T05:22:48;589.20;2432.00
55016;DHT22;40919;43.236;21.590;2023-07-31T05:25:14;589.30;2432.00
55016;DHT22;40919;43.236;21.590;2023-07-31T05:27:40;589.40;2432.00
55016;DHT22;40919;43.236;21.590;2023-07-31T05:30:06;589.50;2432.00
55016;DHT22;40919;43.236;21.590;2023-07-31T05:32:32;589.50;2432.00
55016;DHT22;40919;43.236;21.590;2023-07-31T05:34:58;589.60;2432.00
55016;DHT22;40919;43.236;21.590;2023-07-31T05:37:24;589.60;2432.00
55016;DHT22;40919;43.236;21.590;2023-07-31T05:39:49;589.60;2432.00
55016;DHT22;40919;43.236;21.590;2023-07-31T05:42:16;589.70;2432.00
55016;DHT22;40919;43.236;21.590;2023-07-31T05:44:41;589.70;2432.00
55016;DHT22;40919;43.236;21.590;2023-07-31T05:47:07;589.70;2432.00
55016;DHT22;40919;43.236;21.590;2023-07-31T05:49:33;589.70;2432.00
55016;DHT22;40919;43.236;21.590;2023-07-31T05:51:59;589.70;2432.00
55016;DHT22;40919;43.236;21.590;2023-07-31T05:54:25;589.70;2432.00
55016;DHT22;40919;43.236;21.590;2023-07-31T05:56:51;589.70;2432.00
55016;DHT22;40919;43.236;21.590;2023-07-31T05:59:16;589.70;2432.00
55016;DHT22;40919;43.236;21.590;2023-07-31T06:01:42;589.70;2432.00
55016;DHT22;40919;43.236;21.590;2023-07-31T06:04:08;614.40;2432.00
55016;DHT22;40919;43.236;21.590;2023-07-31T06:06:34;614.40;2432.00
55016;DHT22;40919;43.236;21.590;2023-07-31T06:09:00;614.50;2432.00
55016;DHT22;40919;43.236;21.590;2023-07-31T06:11:26;614.50;2432.00
55016;DHT22;40919;43.236;21.590;2023-07-31T06:13:51;614.50;2432.00
55016;DHT22;40919;43.236;21.590;2023-07-31T06:16:17;614.60;2432.00
55016;DHT22;40919;43.236;21.590;2023-07-31T06:18:43;614.60;2432.00
55016;DHT22;40919;43.236;21.590;2023-07-31T06:21:09;614.70;2432.00
55016;DHT22;40919;43.236;21.590;2023-07-31T06:23:36;614.80;2432.00
55016;DHT22;40919;43.236;21.590;2023-07-31T06:26:02;614.80;2432.00
55016;DHT22;40919;43.236;21.590;2023-07-31T06:28:31;614.90;2432.00
55016;DHT22;40919;43.236;21.590;2023-07-31T06:33:27;614.90;2432.00
55016;DHT22;40919;43.236;21.590;2023-07-31T06:35:53;614.80;2432.00
55016;DHT22;40919;43.236;21.590;2023-07-31T06:38:23;614.70;2432.00
55016;DHT22;40919;43.236;21.590;2023-07-31T06:40:49;614.70;2432.00
55016;DHT22;40919;43.236;21.590;2023-07-31T06:43:15;614.70;2432.00
55016;DHT22;40919;43.236;21.590;2023-07-31T06:45:41;614.80;2432.00
55016;DHT22;40919;43.236;21.590;2023-07-31T06:48:07;614.80;2432.00
55016;DHT22;40919;43.236;21.590;2023-07-31T06:50:32;614.70;2432.00
55016;DHT22;40919;43.236;21.590;2023-07-31T06:52:59;614.70;2432.00
55016;DHT22;40919;43.236;21.590;2023-07-31T06:55:25;614.80;2432.00
55016;DHT22;40919;43.236;21.590;2023-07-31T06:57:53;614.80;2432.00
55016;DHT22;40919;43.236;21.590;2023-07-31T07:00:20;615.00;2432.00
55016;DHT22;40919;43.236;21.590;2023-07-31T07:07:45;615.10;2432.00
55016;DHT22;40919;43.236;21.590;2023-07-31T07:10:11;615.00;2432.00
55016;DHT22;40919;43.236;21.590;2023-07-31T07:12:37;614.90;2432.00
55016;DHT22;40919;43.236;21.590;2023-07-31T07:15:03;614.90;2432.00
55016;DHT22;40919;43.236;21.590;2023-07-31T07:17:29;615.00;2432.00
55016;DHT22;40919;43.236;21.590;2023-07-31T07:19:58;615.30;2432.00
55016;DHT22;40919;43.236;21.590;2023-07-31T07:22:25;615.20;2432.00
55016;DHT22;40919;43.236;21.590;2023-07-31T07:24:51;640.00;2432.00
55016;DHT22;40919;43.236;21.590;2023-07-31T07:27:17;640.00;2432.00
55016;DHT22;40919;43.236;21.590;2023-07-31T07:29:42;640.00;2432.00
55016;DHT22;40919;43.236;21.590;2023-07-31T07:32:08;615.30;2432.00
55016;DHT22;40919;43.236;21.590;2023-07-31T07:34:34;615.30;2432.00
55016;DHT22;40919;43.236;21.590;2023-07-31T07:37:00;615.30;2432.00
55016;DHT22;40919;43.236;21.590;2023-07-31T07:39:25;615.30;2432.00
55016;DHT22;40919;43.236;21.590;2023-07-31T07:41:51;615.30;2432.00
55016;DHT22;40919;43.236;21.590;2023-07-31T07:44:18;615.20;2432.00
55016;DHT22;40919;43.236;21.590;2023-07-31T07:46:44;640.00;2432.00
55016;DHT22;40919;43.236;21.590;2023-07-31T07:49:10;640.20;2432.00
55016;DHT22;40919;43.236;21.590;2023-07-31T07:51:36;640.40;2432.00
55016;DHT22;40919;43.236;21.590;2023-07-31T07:54:02;640.40;2432.00
55016;DHT22;40919;43.236;21.590;2023-07-31T07:56:28;640.60;2432.00
55016;DHT22;40919;43.236;21.590;2023-07-31T07:58:54;640.90;2432.00
55016;DHT22;40919;43.236;21.590;2023-07-31T08:01:20;640.80;2432.00
55016;DHT22;40919;43.236;21.590;2023-07-31T08:03:50;640.60;2432.00
55016;DHT22;40919;43.236;21.590;2023-07-31T08:06:15;640.40;2432.00
55016;DHT22;40919;43.236;21.590;2023-07-31T08:13:33;640.40;2432.00
55016;DHT22;40919;43.236;21.590;2023-07-31T08:37:57;665.70;2432.00
55016;DHT22;40919;43.236;21.590;2023-07-31T08:52:39;666.40;2432.00
55016;DHT22;40919;43.236;21.590;2023-07-31T08:55:08;666.30;2432.00
55016;DHT22;40919;43.236;21.590;2023-07-31T09:00:07;691.60;2432.00
55016;DHT22;40919;43.236;21.590;2023-07-31T09:05:35;691.30;2432.00
55016;DHT22;40919;43.236;21.590;2023-07-31T09:08:03;691.20;2432.00
55016;DHT22;40919;43.236;21.590;2023-07-31T09:10:30;666.50;2432.00
55016;DHT22;40919;43.236;21.590;2023-07-31T09:12:56;666.30;2432.00
55016;DHT22;40919;43.236;21.590;2023-07-31T09:15:24;666.30;2432.00
55016;DHT22;40919;43.236;21.590;2023-07-31T09:17:59;666.30;2432.00
55016;DHT22;40919;43.236;21.590;2023-07-31T09:20:26;666.20;2432.00
55016;DHT22;40919;43.236;21.590;2023-07-31T09:22:52;666.30;2432.00
55016;DHT22;40919;43.236;21.590;2023-07-31T09:27:54;691.20;2432.00
55016;DHT22;40919;43.236;21.590;2023-07-31T09:30:21;666.50;2432.00
55016;DHT22;40919;43.236;21.590;2023-07-31T09:32:48;666.50;2432.00
55016;DHT22;40919;43.236;21.590;2023-07-31T09:35:22;691.20;2432.00
55016;DHT22;40919;43.236;21.590;2023-07-31T09:37:53;691.60;2432.00
55016;DHT22;40919;43.236;21.590;2023-07-31T09:40:30;691.90;2432.00
55016;DHT22;40919;43.236;21.590;2023-07-31T09:42:58;717.10;2432.00
55016;DHT22;40919;43.236;21.590;2023-07-31T09:45:24;717.10;2432.00
55016;DHT22;40919;43.236;21.590;2023-07-31T09:47:50;716.90;2432.00
55016;DHT22;40919;43.236;21.590;2023-07-31T09:50:17;716.80;2432.00
55016;DHT22;40919;43.236;21.590;2023-07-31T09:52:43;692.00;2432.00
55016;DHT22;40919;43.236;21.590;2023-07-31T09:55:09;691.90;2432.00
55016;DHT22;40919;43.236;21.590;2023-07-31T09:57:41;691.80;2432.00
55016;DHT22;40919;43.236;21.590;2023-07-31T10:00:09;691.70;2432.00
55016;DHT22;40919;43.236;21.590;2023-07-31T10:02:36;691.60;2432.00
55016;DHT22;40919;43.236;21.590;2023-07-31T10:07:31;691.50;2432.00
55016;DHT22;40919;43.236;21.590;2023-07-31T10:17:24;691.80;2432.00
55016;DHT22;40919;43.236;21.590;2023-07-31T10:19:50;691.70;2432.00
55016;DHT22;40919;43.236;21.590;2023-07-31T10:22:16;691.80;2432.00
55016;DHT22;40919;43.236;21.590;2023-07-31T10:45:05;717.10;2355.20
55016;DHT22;40919;43.236;21.590;2023-07-31T10:47:31;717.40;2329.60
55016;DHT22;40919;43.236;21.590;2023-07-31T10:50:21;717.70;2380.80
55016;DHT22;40919;43.236;21.590;2023-07-31T10:52:48;742.60;2304.00
55016;DHT22;40919;43.236;21.590;2023-07-31T10:55:28;742.80;2278.40
55016;DHT22;40919;43.236;21.590;2023-07-31T10:57:56;742.50;2252.80
55016;DHT22;40919;43.236;21.590;2023-07-31T11:10:47;717.30;2304.00
55016;DHT22;40919;43.236;21.590;2023-07-31T11:13:14;717.20;2355.20
55016;DHT22;40919;43.236;21.590;2023-07-31T11:15:40;717.50;2355.20
55016;DHT22;40919;43.236;21.590;2023-07-31T11:18:06;717.40;2380.80
55016;DHT22;40919;43.236;21.590;2023-07-31T11:20:34;717.50;2355.20
55016;DHT22;40919;43.236;21.590;2023-07-31T11:23:06;742.60;2304.00
55016;DHT22;40919;43.236;21.590;2023-07-31T11:25:32;743.00;2329.60
55016;DHT22;40919;43.236;21.590;2023-07-31T11:28:06;743.00;2329.60
55016;DHT22;40919;43.236;21.590;2023-07-31T11:30:32;742.70;2252.80
55016;DHT22;40919;43.236;21.590;2023-07-31T11:33:04;742.60;2278.40
55016;DHT22;40919;43.236;21.590;2023-07-31T11:35:31;742.40;2304.00
55016;DHT22;40919;43.236;21.590;2023-07-31T11:37:57;717.50;2252.80
55016;DHT22;40919;43.236;21.590;2023-07-31T11:40:23;717.30;2304.00
55016;DHT22;40919;43.236;21.590;2023-07-31T11:42:59;717.20;2355.20
55016;DHT22;40919;43.236;21.590;2023-07-31T11:45:29;717.10;2329.60
55016;DHT22;40919;43.236;21.590;2023-07-31T11:47:56;716.90;2329.60
55016;DHT22;40919;43.236;21.590;2023-07-31T11:50:23;716.80;2380.80
55016;DHT22;40919;43.236;21.590;2023-07-31T11:53:03;692.10;2329.60
55016;DHT22;40919;43.236;21.590;2023-07-31T11:55:30;692.10;2355.20
55016;DHT22;40919;43.236;21.590;2023-07-31T11:57:57;717.00;2355.20
55016;DHT22;40919;43.236;21.590;2023-07-31T12:00:24;716.90;2380.80
55016;DHT22;40919;43.236;21.590;2023-07-31T12:02:51;717.00;2380.80
55016;DHT22;40919;43.236;21.590;2023-07-31T12:05:17;717.00;2380.80
55016;DHT22;40919;43.236;21.590;2023-07-31T12:07:48;717.10;2406.40
55016;DHT22;40919;43.236;21.590;2023-07-31T12:10:28;717.20;2380.80
55016;DHT22;40919;43.236;21.590;2023-07-31T12:13:08;742.40;2406.40
55016;DHT22;40919;43.236;21.590;2023-07-31T12:15:41;743.10;2304.00
55016;DHT22;40919;43.236;21.590;2023-07-31T12:18:12;768.30;2252.80
55016;DHT22;40919;43.236;21.590;2023-07-31T12:20:46;768.00;2278.40
55016;DHT22;40919;43.236;21.590;2023-07-31T12:23:24;742.90;2252.80
55016;DHT22;40919;43.236;21.590;2023-07-31T12:28:29;717.70;2252.80
55016;DHT22;40919;43.236;21.590;2023-07-31T12:31:00;717.40;2278.40
55016;DHT22;40919;43.236;21.590;2023-07-31T12:33:31;717.40;2252.80
55016;DHT22;40919;43.236;21.590;2023-07-31T12:35:57;717.40;2252.80
55016;DHT22;40919;43.236;21.590;2023-07-31T12:38:23;717.40;2252.80
55016;DHT22;40919;43.236;21.590;2023-07-31T12:40:49;717.30;2252.80
55016;DHT22;40919;43.236;21.590;2023-07-31T12:43:15;717.30;2304.00
55016;DHT22;40919;43.236;21.590;2023-07-31T12:45:50;717.20;2304.00
55016;DHT22;40919;43.236;21.590;2023-07-31T12:48:16;717.20;2278.40
55016;DHT22;40919;43.236;21.590;2023-07-31T12:50:42;717.20;2304.00
55016;DHT22;40919;43.236;21.590;2023-07-31T12:53:10;717.30;2329.60
55016;DHT22;40919;43.236;21.590;2023-07-31T12:55:36;717.20;2278.40
55016;DHT22;40919;43.236;21.590;2023-07-31T12:58:02;717.20;2252.80
55016;DHT22;40919;43.236;21.590;2023-07-31T13:00:28;717.10;2252.80
55016;DHT22;40919;43.236;21.590;2023-07-31T13:02:54;717.10;2252.80
55016;DHT22;40919;43.236;21.590;2023-07-31T13:05:20;717.10;2252.80
55016;DHT22;40919;43.236;21.590;2023-07-31T13:07:48;716.90;2252.80
55016;DHT22;40919;43.236;21.590;2023-07-31T13:10:20;716.90;2252.80
55016;DHT22;40919;43.236;21.590;2023-07-31T13:12:45;716.90;2227.20
55016;DHT22;40919;43.236;21.590;2023-07-31T13:15:11;716.80;2252.80
55016;DHT22;40919;43.236;21.590;2023-07-31T13:17:37;716.90;2252.80
55016;DHT22;40919;43.236;21.590;2023-07-31T13:20:03;717.00;2252.80
55016;DHT22;40919;43.236;21.590;2023-07-31T13:22:30;717.70;2176.00
55016;DHT22;40919;43.236;21.590;2023-07-31T13:24:56;742.90;2176.00
55016;DHT22;40919;43.236;21.590;2023-07-31T13:27:21;743.10;2073.60
55016;DHT22;40919;43.236;21.590;2023-07-31T13:29:48;743.10;2073.60
55016;DHT22;40919;43.236;21.590;2023-07-31T13:32:15;768.40;2099.20
55016;DHT22;40919;43.236;21.590;2023-07-31T13:34:41;768.80;2048.00
55016;DHT22;40919;43.236;21.590;2023-07-31T13:37:07;793.80;2022.40
55016;DHT22;40919;43.236;21.590;2023-07-31T13:39:33;793.70;2022.40
55016;DHT22;40919;43.236;21.590;2023-07-31T13:42:00;793.70;1971.20
55016;DHT22;40919;43.236;21.590;2023-07-31T13:44:26;794.00;2022.40
55016;DHT22;40919;43.236;21.590;2023-07-31T13:46:52;794.20;1996.80
55016;DHT22;40919;43.236;21.590;2023-07-31T13:49:18;794.40;1971.20
55016;DHT22;40919;43.236;21.590;2023-07-31T13:51:43;819.20;1945.60
55016;DHT22;40919;43.236;21.590;2023-07-31T13:54:09;819.30;1920.00
55016;DHT22;40919;43.236;21.590;2023-07-31T13:56:37;819.30;1920.00
55016;DHT22;40919;43.236;21.590;2023-07-31T13:59:03;819.40;1920.00
55016;DHT22;40919;43.236;21.590;2023-07-31T14:01:29;819.60;1920.00
55016;DHT22;40919;43.236;21.590;2023-07-31T14:03:56;819.60;1920.00
55016;DHT22;40919;43.236;21.590;2023-07-31T14:06:22;819.80;1894.40
55016;DHT22;40919;43.236;21.590;2023-07-31T14:08:47;819.40;1920.00
55016;DHT22;40919;43.236;21.590;2023-07-31T14:11:13;819.90;1894.40
55016;DHT22;40919;43.236;21.590;2023-07-31T14:13:39;820.00;1920.00
55016;DHT22;40919;43.236;21.590;2023-07-31T14:16:05;844.90;1920.00
55016;DHT22;40919;43.236;21.590;2023-07-31T14:18:30;820.10;1894.40
55016;DHT22;40919;43.236;21.590;2023-07-31T14:20:56;820.10;1868.80
55016;DHT22;40919;43.236;21.590;2023-07-31T14:23:22;819.80;1894.40
55016;DHT22;40919;43.236;21.590;2023-07-31T14:25:48;819.90;1868.80
55016;DHT22;40919;43.236;21.590;2023-07-31T14:28:13;820.00;1843.20
55016;DHT22;40919;43.236;21.590;2023-07-31T14:30:39;819.60;1843.20
55016;DHT22;40919;43.236;21.590;2023-07-31T14:33:05;819.40;1894.40
55016;DHT22;40919;43.236;21.590;2023-07-31T14:35:31;819.30;1894.40
55016;DHT22;40919;43.236;21.590;2023-07-31T14:37:57;794.10;1945.60
55016;DHT22;40919;43.236;21.590;2023-07-31T14:40:22;819.20;1920.00
55016;DHT22;40919;43.236;21.590;2023-07-31T14:42:48;819.60;1920.00
55016;DHT22;40919;43.236;21.590;2023-07-31T14:45:14;819.20;1945.60
55016;DHT22;40919;43.236;21.590;2023-07-31T14:47:40;794.00;1996.80
55016;DHT22;40919;43.236;21.590;2023-07-31T14:50:06;793.60;1996.80
55016;DHT22;40919;43.236;21.590;2023-07-31T14:52:32;793.60;2022.40
55016;DHT22;40919;43.236;21.590;2023-07-31T14:54:58;794.10;1945.60
55016;DHT22;40919;43.236;21.590;2023-07-31T14:57:24;793.80;1996.80
55016;DHT22;40919;43.236;21.590;2023-07-31T14:59:49;793.70;1996.80
55016;DHT22;40919;43.236;21.590;2023-07-31T15:02:15;768.70;2022.40
55016;DHT22;40919;43.236;21.590;2023-07-31T15:04:41;768.40;2048.00
55016;DHT22;40919;43.236;21.590;2023-07-31T15:07:07;768.10;2048.00
55016;DHT22;40919;43.236;21.590;2023-07-31T15:09:33;743.30;2048.00
55016;DHT22;40919;43.236;21.590;2023-07-31T15:11:59;768.00;2048.00
55016;DHT22;40919;43.236;21.590;2023-07-31T15:14:25;768.40;2048.00
55016;DHT22;40919;43.236;21.590;2023-07-31T15:16:53;768.10;2048.00
55016;DHT22;40919;43.236;21.590;2023-07-31T15:19:18;743.30;2073.60
55016;DHT22;40919;43.236;21.590;2023-07-31T15:21:44;743.10;2099.20
55016;DHT22;40919;43.236;21.590;2023-07-31T15:24:10;743.00;2124.80
55016;DHT22;40919;43.236;21.590;2023-07-31T15:26:37;742.90;2124.80
55016;DHT22;40919;43.236;21.590;2023-07-31T15:29:06;742.60;2124.80
55016;DHT22;40919;43.236;21.590;2023-07-31T15:31:38;742.50;2176.00
55016;DHT22;40919;43.236;21.590;2023-07-31T15:34:04;743.00;2150.40
55016;DHT22;40919;43.236;21.590;2023-07-31T15:36:30;743.30;2124.80
55016;DHT22;40919;43.236;21.590;2023-07-31T15:38:56;743.00;2124.80
55016;DHT22;40919;43.236;21.590;2023-07-31T15:41:22;743.00;2150.40
55016;DHT22;40919;43.236;21.590;2023-07-31T15:43:49;742.60;2150.40
55016;DHT22;40919;43.236;21.590;2023-07-31T15:46:15;742.60;2176.00
55016;DHT22;40919;43.236;21.590;2023-07-31T15:48:41;742.50;2201.60
55016;DHT22;40919;43.236;21.590;2023-07-31T15:51:07;742.40;2201.60
55016;DHT22;40919;43.236;21.590;2023-07-31T15:53:33;742.40;2201.60
55016;DHT22;40919;43.236;21.590;2023-07-31T15:55:59;742.50;2150.40
55016;DHT22;40919;43.236;21.590;2023-07-31T15:58:25;742.60;2124.80
55016;DHT22;40919;43.236;21.590;2023-07-31T16:00:50;742.60;2150.40
55016;DHT22;40919;43.236;21.590;2023-07-31T16:03:16;742.50;2176.00
55016;DHT22;40919;43.236;21.590;2023-07-31T16:05:42;742.60;2176.00
55016;DHT22;40919;43.236;21.590;2023-07-31T16:08:08;742.60;2176.00
55016;DHT22;40919;43.236;21.590;2023-07-31T16:10:34;742.50;2176.00
55016;DHT22;40919;43.236;21.590;2023-07-31T16:13:00;742.40;2201.60
55016;DHT22;40919;43.236;21.590;2023-07-31T16:15:26;717.60;2150.40
55016;DHT22;40919;43.236;21.590;2023-07-31T16:17:51;717.50;2150.40
55016;DHT22;40919;43.236;21.590;2023-07-31T16:20:17;717.50;2176.00